createdAt,value
2022-11-13T00:01:52.238Z,25.63
2022-11-13T00:04:38.490Z,24.97
2022-11-13T00:07:24.627Z,25.53
2022-11-13T00:10:10.913Z,25.67
2022-11-13T00:12:57.029Z,24.87
2022-11-13T00:15:43.340Z,23.30
2022-11-13T00:18:31.782Z,26.10
2022-11-13T00:21:19.433Z,22.97
2022-11-13T00:24:05.785Z,23.47
2022-11-13T00:26:52.070Z,22.53
2022-11-13T00:29:38.369Z,24.20
2022-11-13T00:32:24.399Z,30.13
2022-11-13T00:35:12.052Z,24.43
2022-11-13T00:37:58.140Z,31.60
2022-11-13T00:40:44.352Z,29.13
2022-11-13T00:43:30.426Z,23.20
2022-11-13T00:46:16.762Z,21.07
2022-11-13T00:49:03.488Z,29.00
2022-11-13T00:51:50.881Z,24.33
2022-11-13T00:54:36.937Z,24.80
2022-11-13T00:57:23.196Z,27.33
2022-11-13T01:00:11.060Z,23.60
2022-11-13T01:02:58.763Z,22.53
2022-11-13T01:05:46.659Z,24.33
2022-11-13T01:08:34.051Z,20.90
2022-11-13T01:11:21.672Z,26.73
2022-11-13T01:14:07.751Z,23.73
2022-11-13T01:16:54.147Z,28.43
2022-11-13T01:19:40.533Z,30.97
2022-11-13T01:22:26.449Z,27.50
2022-11-13T01:25:14.223Z,26.80
2022-11-13T01:28:00.458Z,24.03
2022-11-13T01:30:46.414Z,27.33
2022-11-13T01:33:32.537Z,21.97
2022-11-13T01:36:20.869Z,24.83
2022-11-13T01:39:06.839Z,26.80
2022-11-13T01:41:54.806Z,24.83
2022-11-13T01:44:53.046Z,27.50
2022-11-13T01:47:39.023Z,36.90
2022-11-13T01:50:25.273Z,25.40
2022-11-13T01:53:11.959Z,23.10
2022-11-13T01:55:58.037Z,24.73
2022-11-13T01:58:50.236Z,26.90
2022-11-13T02:01:36.781Z,29.80
2022-11-13T02:04:23.170Z,27.67
2022-11-13T02:07:11.230Z,27.87
2022-11-13T02:09:58.273Z,27.30
2022-11-13T02:12:47.897Z,26.50
2022-11-13T02:15:35.963Z,31.87
2022-11-13T02:18:22.802Z,32.50
2022-11-13T02:21:17.560Z,27.13
2022-11-13T02:24:14.949Z,26.37
2022-11-13T02:27:13.006Z,27.27
2022-11-13T02:29:59.433Z,29.00
2022-11-13T02:32:47.472Z,26.03
2022-11-13T02:35:36.472Z,28.00
2022-11-13T02:38:22.548Z,29.13
2022-11-13T02:41:08.958Z,28.07
2022-11-13T02:43:56.269Z,28.47
2022-11-13T02:46:42.451Z,26.33
2022-11-13T02:49:28.692Z,30.67
2022-11-13T02:52:14.950Z,27.87
2022-11-13T02:55:01.013Z,30.37
2022-11-13T02:57:47.220Z,29.83
2022-11-13T03:00:34.983Z,27.33
2022-11-13T03:03:41.133Z,29.10
2022-11-13T03:06:26.966Z,27.97
2022-11-13T03:09:13.088Z,29.23
2022-11-13T03:11:59.081Z,35.00
2022-11-13T03:14:45.277Z,32.13
2022-11-13T03:17:33.318Z,27.67
2022-11-13T03:20:19.421Z,28.57
2022-11-13T03:23:05.912Z,26.90
2022-11-13T03:25:52.120Z,26.00
2022-11-13T03:28:38.602Z,33.17
2022-11-13T03:31:24.789Z,30.80
2022-11-13T03:34:12.716Z,30.47
2022-11-13T03:36:58.831Z,35.27
2022-11-13T03:39:44.955Z,28.80
2022-11-13T03:42:31.449Z,26.90
2022-11-13T03:45:17.919Z,31.20
2022-11-13T03:48:04.099Z,35.03
2022-11-13T03:50:54.157Z,38.60
2022-11-13T03:53:40.501Z,32.87
2022-11-13T03:56:26.836Z,36.47
2022-11-13T03:59:13.020Z,35.27
2022-11-13T04:01:58.968Z,29.77
2022-11-13T04:04:45.539Z,31.53
2022-11-13T04:07:33.050Z,37.37
2022-11-13T04:10:19.180Z,37.70
2022-11-13T04:13:05.533Z,32.30
2022-11-13T04:15:51.669Z,34.03
2022-11-13T04:18:38.074Z,36.27
2022-11-13T04:21:24.589Z,36.97
2022-11-13T04:24:12.174Z,39.07
2022-11-13T04:26:58.348Z,35.23
2022-11-13T04:29:44.333Z,35.57
2022-11-13T04:32:30.544Z,35.40
2022-11-13T04:35:16.855Z,33.50
2022-11-13T04:38:02.865Z,40.03
2022-11-13T04:41:11.907Z,35.37
2022-11-13T04:43:57.241Z,34.90
2022-11-13T04:46:43.465Z,41.13
2022-11-13T04:49:29.726Z,38.17
2022-11-13T04:52:16.100Z,32.67
2022-11-13T04:55:02.201Z,47.00
2022-11-13T04:57:51.481Z,35.07
2022-11-13T05:00:37.833Z,38.03
2022-11-13T05:03:23.972Z,42.90
2022-11-13T05:06:16.672Z,41.23
2022-11-13T05:09:02.633Z,42.40
2022-11-13T05:11:48.850Z,47.10
2022-11-13T05:14:37.542Z,37.70
2022-11-13T05:17:24.046Z,43.57
2022-11-13T05:20:11.203Z,41.53
2022-11-13T05:22:57.415Z,39.03
2022-11-13T05:25:43.823Z,40.63
2022-11-13T05:28:30.191Z,42.30
2022-11-13T05:31:18.058Z,44.23
2022-11-13T05:34:06.117Z,40.37
2022-11-13T05:36:52.152Z,42.70
2022-11-13T05:39:38.193Z,35.93
2022-11-13T05:42:24.647Z,39.70
2022-11-13T05:45:11.462Z,41.30
2022-11-13T05:47:59.477Z,37.57
2022-11-13T05:50:45.812Z,38.90
2022-11-13T05:53:33.772Z,44.10
2022-11-13T05:56:21.583Z,38.33
2022-11-13T05:59:07.885Z,41.30
2022-11-13T06:01:53.956Z,43.87
2022-11-13T06:04:41.350Z,40.70
2022-11-13T06:07:27.793Z,43.83
2022-11-13T06:10:13.683Z,45.23
2022-11-13T06:12:59.506Z,36.90
2022-11-13T06:15:45.464Z,42.03
2022-11-13T06:18:32.131Z,39.50
2022-11-13T06:21:21.376Z,38.33
2022-11-13T06:24:08.555Z,38.40
2022-11-13T06:26:54.850Z,40.80
2022-11-13T06:29:41.083Z,39.50
2022-11-13T06:32:27.384Z,39.80
2022-11-13T06:35:13.316Z,44.20
2022-11-13T06:38:01.161Z,42.30
2022-11-13T06:40:47.464Z,40.20
2022-11-13T06:43:33.996Z,40.57
2022-11-13T06:46:21.673Z,46.60
2022-11-13T06:49:08.481Z,42.70
2022-11-13T06:51:54.671Z,42.53
2022-11-13T06:54:41.973Z,40.47
2022-11-13T06:57:28.157Z,46.77
2022-11-13T07:00:15.861Z,43.67
2022-11-13T07:03:01.821Z,42.40
2022-11-13T07:05:48.428Z,45.73
2022-11-13T07:08:35.101Z,56.77
2022-11-13T07:11:24.222Z,50.07
2022-11-13T07:14:14.242Z,45.17
2022-11-13T07:17:15.388Z,45.30
2022-11-13T07:20:01.802Z,53.17
2022-11-13T07:22:48.260Z,46.03
2022-11-13T07:25:34.765Z,48.43
2022-11-13T07:28:23.020Z,47.70
2022-11-13T07:31:10.506Z,48.80
2022-11-13T07:33:56.719Z,45.10
2022-11-13T07:36:42.747Z,49.27
2022-11-13T07:39:28.638Z,51.50
2022-11-13T07:42:14.680Z,47.40
2022-11-13T07:45:02.157Z,57.57
2022-11-13T07:47:48.121Z,55.17
2022-11-13T07:50:35.889Z,51.83
2022-11-13T07:53:22.972Z,53.20
2022-11-13T07:56:09.533Z,56.53
2022-11-13T07:58:55.707Z,50.87
2022-11-13T08:01:43.712Z,49.40
2022-11-13T08:04:30.902Z,53.07
2022-11-13T08:07:16.958Z,51.83
2022-11-13T08:10:03.018Z,54.47
2022-11-13T08:12:49.366Z,55.97
2022-11-13T08:15:39.643Z,49.87
2022-11-13T08:18:28.164Z,48.40
2022-11-13T08:21:15.149Z,52.13
2022-11-13T08:24:01.325Z,51.90
2022-11-13T08:26:47.787Z,52.40
2022-11-13T08:29:37.175Z,57.60
2022-11-13T08:32:23.241Z,57.40
2022-11-13T08:35:14.727Z,55.47
2022-11-13T08:38:05.298Z,62.73
2022-11-13T08:40:51.612Z,55.90
2022-11-13T08:43:37.606Z,51.13
2022-11-13T08:46:23.896Z,55.30
2022-11-13T08:49:12.455Z,59.60
2022-11-13T08:52:01.687Z,56.23
2022-11-13T08:54:49.428Z,53.97
2022-11-13T08:57:35.681Z,54.50
2022-11-13T09:00:22.726Z,51.33
2022-11-13T09:03:10.783Z,48.73
2022-11-13T09:05:57.006Z,51.00
2022-11-13T09:08:44.427Z,53.40
2022-11-13T09:11:30.961Z,53.70
2022-11-13T09:14:17.194Z,51.83
2022-11-13T09:17:03.829Z,56.77
2022-11-13T09:19:50.400Z,51.33
2022-11-13T09:22:36.643Z,50.70
2022-11-13T09:25:24.359Z,45.90
2022-11-13T09:28:11.623Z,45.40
2022-11-13T09:30:57.910Z,50.27
2022-11-13T09:33:43.958Z,51.90
2022-11-13T09:36:30.034Z,46.77
2022-11-13T09:39:16.970Z,40.77
2022-11-13T09:42:12.499Z,50.20
2022-11-13T09:45:02.728Z,46.77
2022-11-13T09:47:49.641Z,40.73
2022-11-13T09:50:36.081Z,40.97
2022-11-13T09:53:22.932Z,41.80
2022-11-13T09:56:19.091Z,44.10
2022-11-13T09:59:16.907Z,48.43
2022-11-13T10:02:15.843Z,43.40
2022-11-13T10:05:05.080Z,42.73
2022-11-13T10:07:55.753Z,42.17
2022-11-13T10:10:55.142Z,47.70
2022-11-13T10:13:45.162Z,37.67
2022-11-13T10:16:35.192Z,39.57
2022-11-13T10:19:25.611Z,33.67
2022-11-13T10:22:33.958Z,39.63
2022-11-13T10:25:22.016Z,36.70
2022-11-13T10:28:43.220Z,35.30
2022-11-13T10:31:20.213Z,37.77
2022-11-13T10:34:07.737Z,38.97
2022-11-13T10:37:06.587Z,37.63
2022-11-13T10:39:53.102Z,35.00
2022-11-13T10:42:41.156Z,36.50
2022-11-13T10:45:28.368Z,34.70
2022-11-13T10:48:22.053Z,36.37
2022-11-13T10:51:29.475Z,37.17
2022-11-13T10:54:23.332Z,33.27
2022-11-13T10:57:23.960Z,38.40
2022-11-13T11:00:21.635Z,37.50
2022-11-13T11:03:09.760Z,37.37
2022-11-13T11:05:58.713Z,48.53
2022-11-13T11:08:46.545Z,34.40
2022-11-13T11:11:52.758Z,38.00
2022-11-13T11:14:42.575Z,34.47
2022-11-13T11:17:32.745Z,34.73
2022-11-13T11:20:24.490Z,33.73
2022-11-13T11:23:18.406Z,40.30
2022-11-13T11:26:11.098Z,40.77
2022-11-13T11:29:05.050Z,44.27
2022-11-13T11:31:54.241Z,41.07
2022-11-13T11:34:43.281Z,30.60
2022-11-13T11:37:33.911Z,35.70
2022-11-13T11:40:27.695Z,33.43
2022-11-13T11:43:21.047Z,37.13
2022-11-13T11:46:12.152Z,32.27
2022-11-13T11:49:01.060Z,35.50
2022-11-13T11:51:54.517Z,32.00
2022-11-13T11:54:42.601Z,29.23
2022-11-13T11:57:40.728Z,31.07
2022-11-13T12:00:31.306Z,27.03
2022-11-13T12:03:34.247Z,25.43
2022-11-13T12:06:26.941Z,22.60
2022-11-13T12:09:22.917Z,26.97
2022-11-13T12:12:17.905Z,27.93
2022-11-13T12:15:09.560Z,25.83
2022-11-13T12:18:03.934Z,27.30
2022-11-13T12:20:55.126Z,22.70
2022-11-13T12:23:51.196Z,18.50
2022-11-13T12:26:42.427Z,24.10
2022-11-13T12:29:39.257Z,23.87
2022-11-13T12:32:41.127Z,23.17
2022-11-13T12:35:29.003Z,17.73
2022-11-13T12:38:23.371Z,19.87
2022-11-13T12:41:16.761Z,19.97
2022-11-13T12:44:16.089Z,22.37
2022-11-13T12:47:02.564Z,17.37
2022-11-13T12:49:59.898Z,25.73
2022-11-13T12:52:58.760Z,20.57
2022-11-13T12:55:59.861Z,19.83
2022-11-13T12:59:28.422Z,17.00
2022-11-13T13:02:30.642Z,15.47
2022-11-13T13:05:30.490Z,16.83
2022-11-13T13:08:45.532Z,21.87
2022-11-13T13:11:38.704Z,15.90
2022-11-13T13:14:34.202Z,18.97
2022-11-13T13:17:22.711Z,21.20
2022-11-13T13:20:30.440Z,15.60
2022-11-13T13:23:28.037Z,15.30
2022-11-13T13:26:20.954Z,16.17
2022-11-13T13:29:17.730Z,18.50
2022-11-13T13:32:15.501Z,18.80
2022-11-13T13:35:11.231Z,15.80
2022-11-13T13:38:02.630Z,16.53
2022-11-13T13:40:59.691Z,16.90
2022-11-13T13:43:56.525Z,20.90
2022-11-13T13:46:43.145Z,19.00
2022-11-13T13:49:30.246Z,24.00
2022-11-13T13:52:16.990Z,19.03
2022-11-13T13:55:06.432Z,17.50
2022-11-13T13:57:52.720Z,18.37
2022-11-13T14:00:59.171Z,17.27
2022-11-13T14:03:46.613Z,18.33
2022-11-13T14:06:33.330Z,21.00
2022-11-13T14:09:21.231Z,22.13
2022-11-13T14:12:17.571Z,21.17
2022-11-13T14:15:06.156Z,22.07
2022-11-13T14:17:53.803Z,22.20
2022-11-13T14:20:43.130Z,21.83
2022-11-13T14:23:31.434Z,21.90
2022-11-13T14:26:17.723Z,23.83
2022-11-13T14:29:04.152Z,30.33
2022-11-13T14:31:50.553Z,23.90
2022-11-13T14:34:38.982Z,27.40
2022-11-13T14:37:27.356Z,29.23
2022-11-13T14:40:20.478Z,26.33
2022-11-13T14:43:08.576Z,28.67
2022-11-13T14:45:56.722Z,29.97
2022-11-13T14:48:53.342Z,28.80
2022-11-13T14:51:41.512Z,28.77
2022-11-13T14:54:46.802Z,32.07
2022-11-13T14:57:36.970Z,29.93
2022-11-13T15:00:29.853Z,28.30
2022-11-13T15:03:16.348Z,34.13
2022-11-13T15:06:03.077Z,32.53
2022-11-13T15:08:52.686Z,30.87
2022-11-13T15:11:40.329Z,35.63
2022-11-13T15:14:26.304Z,32.10
2022-11-13T15:17:15.894Z,34.30
2022-11-13T15:20:06.679Z,33.00
2022-11-13T15:22:56.593Z,32.60
2022-11-13T15:25:44.163Z,29.67
2022-11-13T15:28:30.411Z,25.37
2022-11-13T15:31:20.601Z,24.27
2022-11-13T15:34:06.830Z,21.30
2022-11-13T15:36:52.998Z,18.30
2022-11-13T15:39:39.148Z,17.03
2022-11-13T15:42:30.010Z,15.90
2022-11-13T15:45:17.372Z,14.30
2022-11-13T15:48:04.176Z,15.53
2022-11-13T15:50:50.240Z,15.40
2022-11-13T15:53:36.486Z,17.93
2022-11-13T15:56:22.586Z,11.97
2022-11-13T15:59:11.987Z,12.83
2022-11-13T16:01:58.567Z,13.60
2022-11-13T16:04:56.011Z,14.23
2022-11-13T16:07:42.962Z,11.17
2022-11-13T16:10:29.149Z,11.97
2022-11-13T16:13:15.257Z,11.17
2022-11-13T16:16:02.713Z,12.57
2022-11-13T16:18:50.205Z,13.17
2022-11-13T16:21:36.207Z,12.63
2022-11-13T16:24:24.286Z,10.53
2022-11-13T16:27:16.682Z,13.57
2022-11-13T16:30:06.851Z,14.00
2022-11-13T16:32:55.257Z,11.87
2022-11-13T16:35:41.511Z,11.40
2022-11-13T16:38:27.595Z,11.20
2022-11-13T16:41:16.523Z,9.97
2022-11-13T16:44:02.587Z,10.20
2022-11-13T16:46:49.712Z,11.23
2022-11-13T16:49:37.434Z,9.57
2022-11-13T16:52:25.532Z,9.30
2022-11-13T16:55:11.631Z,9.27
2022-11-13T16:57:58.169Z,10.07
2022-11-13T17:00:44.752Z,7.93
2022-11-13T17:03:31.388Z,8.70
2022-11-13T17:06:23.186Z,11.80
2022-11-13T17:09:11.123Z,11.20
2022-11-13T17:11:57.533Z,9.43
2022-11-13T17:14:43.705Z,8.90
2022-11-13T17:17:29.940Z,9.23
2022-11-13T17:20:18.211Z,11.47
2022-11-13T17:23:05.893Z,8.73
2022-11-13T17:25:52.042Z,12.60
2022-11-13T17:28:38.738Z,8.73
2022-11-13T17:31:24.788Z,7.43
2022-11-13T17:34:11.470Z,9.17
2022-11-13T17:36:57.557Z,9.70
2022-11-13T17:39:45.085Z,8.83
2022-11-13T17:42:31.221Z,8.50
2022-11-13T17:45:17.675Z,8.23
2022-11-13T17:48:04.768Z,8.73
2022-11-13T17:50:56.981Z,10.70
2022-11-13T17:53:43.683Z,8.83
2022-11-13T17:56:31.570Z,11.10
2022-11-13T17:59:17.495Z,13.23
2022-11-13T18:02:03.580Z,14.17
2022-11-13T18:04:50.025Z,10.20
2022-11-13T18:07:36.455Z,8.20
2022-11-13T18:10:22.913Z,10.47
2022-11-13T18:13:10.812Z,9.97
2022-11-13T18:15:56.997Z,9.33
2022-11-13T18:18:43.388Z,8.57
2022-11-13T18:21:30.922Z,8.07
2022-11-13T18:24:18.754Z,8.60
2022-11-13T18:27:06.827Z,7.50
2022-11-13T18:29:54.226Z,9.10
2022-11-13T18:32:40.317Z,8.90
2022-11-13T18:35:26.563Z,9.87
2022-11-13T18:38:12.619Z,7.53
2022-11-13T18:41:03.109Z,9.30
2022-11-13T18:43:50.775Z,7.97
2022-11-13T18:46:38.947Z,10.10
2022-11-13T18:49:25.071Z,7.97
2022-11-13T18:52:11.428Z,8.10
2022-11-13T18:54:57.427Z,17.97
2022-11-13T18:57:43.737Z,12.20
2022-11-13T19:00:29.912Z,9.77
2022-11-13T19:03:17.804Z,10.27
2022-11-13T19:06:06.597Z,10.93
2022-11-13T19:08:55.976Z,10.03
2022-11-13T19:11:42.441Z,11.77
2022-11-13T19:14:28.672Z,12.43
2022-11-13T19:17:14.830Z,11.23
2022-11-13T19:20:02.465Z,11.13
2022-11-13T19:22:48.530Z,9.33
2022-11-13T19:25:34.537Z,13.00
2022-11-13T19:28:20.582Z,13.30
2022-11-13T19:31:08.011Z,12.57
2022-11-13T19:33:57.857Z,15.50
2022-11-13T19:36:47.138Z,12.33
2022-11-13T19:39:33.333Z,13.97
2022-11-13T19:42:19.544Z,13.10
2022-11-13T19:45:06.651Z,13.03
2022-11-13T19:47:52.730Z,12.83
2022-11-13T19:50:39.059Z,12.70
2022-11-13T19:53:26.883Z,13.87
2022-11-13T19:56:13.827Z,18.67
2022-11-13T19:58:59.741Z,15.13
2022-11-13T20:01:45.901Z,15.70
2022-11-13T20:04:32.174Z,17.27
2022-11-13T20:07:18.376Z,15.97
2022-11-13T20:10:07.475Z,17.83
2022-11-13T20:12:53.880Z,20.00
2022-11-13T20:15:40.256Z,23.43
2022-11-13T20:18:26.674Z,24.77
2022-11-13T20:21:13.047Z,22.60
2022-11-13T20:24:00.663Z,21.80
2022-11-13T20:26:48.130Z,23.00
2022-11-13T20:29:34.264Z,22.73
2022-11-13T20:32:20.689Z,25.30
2022-11-13T20:35:08.652Z,20.67
2022-11-13T20:37:54.780Z,20.70
2022-11-13T20:40:40.659Z,23.00
2022-11-13T20:43:28.340Z,26.50
2022-11-13T20:46:15.650Z,20.87
2022-11-13T20:49:02.074Z,23.33
2022-11-13T20:51:48.234Z,25.60
2022-11-13T20:54:34.549Z,25.50
2022-11-13T20:57:21.371Z,26.83
2022-11-13T21:00:11.104Z,24.20
2022-11-13T21:02:57.414Z,24.10
2022-11-13T21:05:43.450Z,32.50
2022-11-13T21:08:30.065Z,24.20
2022-11-13T21:11:18.902Z,31.33
2022-11-13T21:14:05.205Z,28.83
2022-11-13T21:16:52.649Z,25.37
2022-11-13T21:19:38.722Z,29.23
2022-11-13T21:22:25.064Z,24.73
2022-11-13T21:25:11.411Z,30.90
2022-11-13T21:27:57.855Z,26.93
2022-11-13T21:30:43.820Z,27.93
2022-11-13T21:33:31.555Z,29.70
2022-11-13T21:36:19.107Z,30.67
2022-11-13T21:39:05.449Z,30.37
2022-11-13T21:41:51.394Z,27.27
2022-11-13T21:44:37.988Z,29.93
2022-11-13T21:47:24.014Z,28.43
2022-11-13T21:50:12.013Z,28.23
2022-11-13T21:52:58.202Z,28.47
2022-11-13T21:55:50.016Z,31.67
2022-11-13T21:58:38.268Z,27.50
2022-11-13T22:01:24.785Z,26.57
2022-11-13T22:04:11.209Z,28.43
2022-11-13T22:06:58.749Z,33.03
2022-11-13T22:09:45.408Z,28.07
2022-11-13T22:12:31.526Z,31.30
2022-11-13T22:15:18.023Z,29.47
2022-11-13T22:18:04.140Z,30.43
2022-11-13T22:20:50.386Z,29.93
2022-11-13T22:23:37.943Z,28.30
2022-11-13T22:26:25.681Z,29.90
2022-11-13T22:29:12.158Z,33.53
2022-11-13T22:31:58.227Z,30.70
2022-11-13T22:34:44.551Z,28.80
2022-11-13T22:37:30.761Z,28.33
2022-11-13T22:40:18.548Z,34.23
2022-11-13T22:43:05.013Z,30.83
2022-11-13T22:45:51.027Z,33.73
2022-11-13T22:48:38.228Z,28.47
2022-11-13T22:51:26.038Z,33.13
2022-11-13T22:54:13.515Z,32.00
2022-11-13T22:57:04.044Z,35.57
2022-11-13T22:59:50.689Z,33.03
2022-11-13T23:02:36.691Z,32.27
2022-11-13T23:05:22.903Z,29.77
2022-11-13T23:08:09.038Z,32.60
2022-11-13T23:10:55.849Z,33.40
2022-11-13T23:13:44.452Z,33.10
2022-11-13T23:16:31.567Z,30.97
2022-11-13T23:19:18.067Z,29.47
2022-11-13T23:22:04.242Z,34.50
2022-11-13T23:24:50.721Z,31.77
2022-11-13T23:27:36.991Z,37.60
2022-11-13T23:30:24.800Z,32.20
2022-11-13T23:33:11.406Z,37.43
2022-11-13T23:35:57.597Z,36.30
2022-11-13T23:38:43.502Z,30.70
2022-11-13T23:41:29.817Z,33.57
2022-11-13T23:44:16.125Z,34.80
2022-11-13T23:47:04.821Z,34.90
2022-11-13T23:49:50.970Z,37.97
2022-11-13T23:52:37.219Z,34.03
2022-11-13T23:55:23.627Z,36.27
2022-11-13T23:58:12.474Z,33.53
